createdAt,value
2023-01-27T00:02:06.322Z,59.70
2023-01-27T00:04:38.047Z,59.80
2023-01-27T00:07:08.387Z,59.80
2023-01-27T00:09:38.996Z,59.90
2023-01-27T00:12:30.909Z,59.90
2023-01-27T00:15:03.697Z,59.90
2023-01-27T00:17:34.243Z,59.80
2023-01-27T00:20:05.172Z,59.90
2023-01-27T00:22:53.935Z,59.80
2023-01-27T00:25:24.726Z,59.90
2023-01-27T00:27:55.228Z,60.00
2023-01-27T00:30:26.049Z,60.20
2023-01-27T00:33:14.286Z,60.30
2023-01-27T00:35:44.962Z,60.30
2023-01-27T00:38:15.635Z,60.60
2023-01-27T00:41:05.735Z,60.50
2023-01-27T00:43:35.994Z,60.40
2023-01-27T00:46:06.649Z,60.60
2023-01-27T00:48:37.328Z,60.40
2023-01-27T00:51:07.901Z,60.30
2023-01-27T00:53:38.371Z,60.20
2023-01-27T00:56:09.648Z,60.20
2023-01-27T00:58:40.389Z,60.10
2023-01-27T01:01:15.649Z,60.20
2023-01-27T01:03:46.888Z,60.20
2023-01-27T01:06:19.577Z,60.10
2023-01-27T01:08:50.426Z,60.00
2023-01-27T01:11:23.873Z,60.20
2023-01-27T01:13:56.298Z,60.20
2023-01-27T01:16:28.352Z,60.00
2023-01-27T01:19:00.007Z,60.10
2023-01-27T01:21:30.551Z,60.00
2023-01-27T01:24:01.223Z,60.20
2023-01-27T01:26:31.554Z,60.20
2023-01-27T01:29:01.912Z,60.10
2023-01-27T01:31:32.243Z,60.20
2023-01-27T01:34:02.847Z,60.20
2023-01-27T01:36:33.109Z,60.10
2023-01-27T01:39:03.518Z,60.20
2023-01-27T01:41:33.826Z,60.20
2023-01-27T01:44:23.564Z,60.30
2023-01-27T01:46:54.053Z,60.00
2023-01-27T01:49:31.701Z,60.20
2023-01-27T01:52:09.582Z,60.20
2023-01-27T01:54:54.165Z,60.20
2023-01-27T01:57:30.616Z,60.10
2023-01-27T02:00:11.514Z,60.20
2023-01-27T02:02:43.165Z,60.50
2023-01-27T02:05:20.084Z,60.50
2023-01-27T02:08:05.735Z,60.10
2023-01-27T02:10:37.275Z,60.20
2023-01-27T02:13:07.755Z,59.80
2023-01-27T02:15:38.266Z,59.90
2023-01-27T02:18:09.776Z,59.70
2023-01-27T02:20:50.509Z,59.90
2023-01-27T02:23:38.675Z,59.90
2023-01-27T02:26:34.722Z,60.20
2023-01-27T02:29:14.304Z,60.30
2023-01-27T02:31:45.321Z,60.50
2023-01-27T02:34:23.377Z,60.30
2023-01-27T02:36:58.371Z,60.40
2023-01-27T02:39:49.309Z,60.30
2023-01-27T02:42:21.647Z,60.00
2023-01-27T02:44:51.969Z,60.20
2023-01-27T02:47:22.317Z,59.70
2023-01-27T02:49:52.699Z,60.00
2023-01-27T02:52:24.255Z,60.00
2023-01-27T02:54:54.765Z,60.00
2023-01-27T02:57:25.127Z,59.60
2023-01-27T02:59:55.593Z,59.70
2023-01-27T03:02:32.127Z,59.90
2023-01-27T03:05:02.750Z,60.00
2023-01-27T03:07:32.989Z,59.50
2023-01-27T03:10:03.449Z,59.70
2023-01-27T03:12:33.950Z,59.70
2023-01-27T03:15:21.944Z,59.10
2023-01-27T03:18:10.173Z,59.30
2023-01-27T03:20:41.092Z,59.00
2023-01-27T03:23:11.844Z,59.20
2023-01-27T03:25:49.997Z,59.20
2023-01-27T03:28:20.296Z,59.30
2023-01-27T03:30:50.810Z,59.30
2023-01-27T03:33:21.122Z,59.20
2023-01-27T03:35:51.476Z,59.30
2023-01-27T03:38:39.911Z,58.50
2023-01-27T03:41:27.897Z,58.90
2023-01-27T03:44:16.012Z,58.80
2023-01-27T03:46:46.370Z,59.10
2023-01-27T03:49:16.719Z,59.20
2023-01-27T03:51:46.976Z,59.20
2023-01-27T03:54:20.171Z,59.80
2023-01-27T03:56:50.409Z,58.70
2023-01-27T03:59:20.795Z,58.50
2023-01-27T04:01:51.157Z,58.70
2023-01-27T04:04:39.478Z,58.90
2023-01-27T04:07:10.635Z,58.60
2023-01-27T04:09:41.113Z,58.80
2023-01-27T04:12:13.203Z,57.90
2023-01-27T04:14:46.128Z,58.20
2023-01-27T04:17:18.778Z,57.90
2023-01-27T04:19:49.708Z,58.10
2023-01-27T04:22:20.527Z,58.40
2023-01-27T04:24:52.106Z,58.70
2023-01-27T04:27:22.419Z,58.70
2023-01-27T04:29:52.601Z,58.80
2023-01-27T04:32:22.950Z,58.90
2023-01-27T04:34:53.534Z,58.90
2023-01-27T04:37:23.920Z,58.90
2023-01-27T04:39:54.318Z,58.90
2023-01-27T04:42:24.573Z,58.90
2023-01-27T04:44:54.809Z,59.00
2023-01-27T04:47:25.593Z,58.90
2023-01-27T04:49:56.377Z,58.90
2023-01-27T04:52:26.681Z,58.90
2023-01-27T04:54:57.108Z,59.00
2023-01-27T04:57:29.101Z,59.00
2023-01-27T04:59:59.373Z,59.00
2023-01-27T05:02:29.726Z,59.10
2023-01-27T05:04:59.995Z,59.10
2023-01-27T05:07:32.113Z,59.20
2023-01-27T05:10:02.814Z,59.20
2023-01-27T05:12:33.035Z,59.60
2023-01-27T05:15:07.051Z,58.40
2023-01-27T05:17:37.613Z,57.30
2023-01-27T05:20:08.172Z,56.50
2023-01-27T05:22:38.330Z,56.30
2023-01-27T05:25:09.015Z,56.20
2023-01-27T05:27:39.456Z,56.70
2023-01-27T05:30:11.007Z,56.90
2023-01-27T05:32:41.248Z,56.80
2023-01-27T05:35:12.371Z,56.50
2023-01-27T05:37:42.920Z,57.00
2023-01-27T05:40:17.885Z,56.80
2023-01-27T05:42:48.039Z,56.80
2023-01-27T05:45:18.314Z,56.80
2023-01-27T05:47:52.939Z,56.70
2023-01-27T05:50:23.124Z,57.30
2023-01-27T05:52:53.274Z,61.80
2023-01-27T05:55:23.436Z,58.80
2023-01-27T05:57:53.595Z,57.90
2023-01-27T06:00:24.312Z,58.70
2023-01-27T06:02:54.659Z,58.10
2023-01-27T06:05:25.004Z,57.80
2023-01-27T06:07:57.433Z,57.80
2023-01-27T06:10:27.989Z,58.80
2023-01-27T06:12:58.346Z,59.60
2023-01-27T06:15:28.576Z,59.80
2023-01-27T06:17:58.797Z,59.80
2023-01-27T06:20:29.018Z,59.80
2023-01-27T06:22:59.688Z,59.80
2023-01-27T06:25:29.978Z,59.70
2023-01-27T06:28:00.814Z,59.60
2023-01-27T06:30:31.055Z,59.60
2023-01-27T06:33:01.245Z,59.50
2023-01-27T06:35:32.147Z,59.50
2023-01-27T06:38:03.595Z,59.40
2023-01-27T06:40:35.360Z,59.30
2023-01-27T06:43:05.952Z,59.30
2023-01-27T06:45:36.153Z,59.20
2023-01-27T06:48:06.680Z,59.20
2023-01-27T06:50:37.021Z,59.20
2023-01-27T06:53:09.266Z,59.10
2023-01-27T06:55:46.526Z,59.10
2023-01-27T06:58:18.317Z,59.20
2023-01-27T07:00:49.522Z,59.20
2023-01-27T07:03:19.915Z,59.30
2023-01-27T07:05:50.413Z,59.30
2023-01-27T07:08:29.296Z,59.30
2023-01-27T07:11:00.157Z,60.10
2023-01-27T07:13:30.326Z,59.50
2023-01-27T07:16:01.993Z,59.40
2023-01-27T07:18:32.788Z,59.60
2023-01-27T07:21:02.987Z,59.60
2023-01-27T07:23:33.162Z,59.80
2023-01-27T07:26:19.295Z,59.90
2023-01-27T07:28:53.957Z,60.30
2023-01-27T07:31:24.724Z,60.60
2023-01-27T07:33:56.088Z,60.90
2023-01-27T07:36:26.313Z,59.70
2023-01-27T07:38:56.600Z,59.60
2023-01-27T07:41:27.927Z,58.70
2023-01-27T07:43:58.259Z,58.50
2023-01-27T07:46:28.603Z,58.10
2023-01-27T07:48:58.995Z,58.30
2023-01-27T07:51:29.223Z,58.40
2023-01-27T07:54:01.976Z,58.40
2023-01-27T07:56:32.579Z,58.10
2023-01-27T07:59:03.041Z,57.90
2023-01-27T08:01:34.911Z,57.90
2023-01-27T08:04:07.654Z,57.90
2023-01-27T08:06:41.600Z,57.90
2023-01-27T08:09:14.344Z,57.80
2023-01-27T08:11:46.008Z,57.70
2023-01-27T08:14:16.460Z,57.70
2023-01-27T08:16:47.159Z,57.80
2023-01-27T08:19:17.779Z,57.90
2023-01-27T08:21:47.956Z,57.90
2023-01-27T08:24:18.357Z,57.90
2023-01-27T08:26:48.721Z,57.70
2023-01-27T08:29:19.149Z,57.50
2023-01-27T08:31:49.962Z,58.40
2023-01-27T08:34:20.932Z,57.90
2023-01-27T08:36:51.305Z,58.10
2023-01-27T08:39:23.029Z,58.00
2023-01-27T08:41:53.462Z,58.00
2023-01-27T08:44:24.238Z,58.10
2023-01-27T08:46:54.698Z,58.10
2023-01-27T08:49:25.343Z,58.10
2023-01-27T08:51:55.641Z,58.40
2023-01-27T08:54:26.222Z,58.60
2023-01-27T08:56:56.461Z,58.60
2023-01-27T08:59:26.985Z,58.70
2023-01-27T09:01:57.155Z,58.70
2023-01-27T09:04:27.641Z,58.80
2023-01-27T09:06:57.974Z,58.80
2023-01-27T09:09:28.172Z,58.80
2023-01-27T09:11:58.373Z,58.80
2023-01-27T09:14:28.655Z,58.80
2023-01-27T09:16:58.923Z,58.70
2023-01-27T09:19:29.280Z,58.70
2023-01-27T09:21:59.577Z,58.70
2023-01-27T09:24:29.864Z,58.70
2023-01-27T09:27:01.100Z,58.70
2023-01-27T09:29:32.831Z,58.70
2023-01-27T09:32:03.084Z,58.70
2023-01-27T09:34:33.528Z,58.70
2023-01-27T09:37:12.058Z,58.70
2023-01-27T09:40:01.893Z,58.70
2023-01-27T09:42:47.049Z,58.70
2023-01-27T09:45:30.062Z,58.80
2023-01-27T09:48:27.866Z,58.80
2023-01-27T09:51:22.821Z,58.70
2023-01-27T09:54:07.881Z,58.90
2023-01-27T09:57:02.611Z,58.90
2023-01-27T10:00:09.881Z,58.90
2023-01-27T10:03:15.367Z,58.90
2023-01-27T10:06:09.899Z,58.90
2023-01-27T10:08:52.757Z,58.90
2023-01-27T10:11:22.973Z,59.00
2023-01-27T10:14:24.125Z,59.00
2023-01-27T10:17:17.410Z,59.00
2023-01-27T10:20:03.547Z,59.00
2023-01-27T10:23:00.839Z,59.00
2023-01-27T10:25:41.094Z,58.90
2023-01-27T10:28:19.184Z,59.00
2023-01-27T10:31:03.076Z,59.00
2023-01-27T10:33:56.991Z,59.00
2023-01-27T10:36:31.654Z,59.10
2023-01-27T10:39:05.593Z,59.10
2023-01-27T10:41:53.777Z,59.10
2023-01-27T10:44:51.890Z,59.20
2023-01-27T10:47:44.431Z,59.20
2023-01-27T10:50:38.360Z,59.20
2023-01-27T10:53:22.337Z,59.20
2023-01-27T10:56:03.326Z,59.20
2023-01-27T10:59:07.150Z,59.20
2023-01-27T11:01:49.274Z,59.20
2023-01-27T11:04:56.235Z,59.20
2023-01-27T11:07:27.284Z,59.20
2023-01-27T11:10:11.109Z,59.30
2023-01-27T11:12:47.362Z,59.30
2023-01-27T11:15:35.357Z,59.30
2023-01-27T11:18:27.918Z,59.20
2023-01-27T11:21:11.884Z,59.20
2023-01-27T11:23:50.616Z,59.30
2023-01-27T11:26:43.656Z,59.30
2023-01-27T11:29:28.877Z,59.20
2023-01-27T11:32:20.139Z,59.30
2023-01-27T11:35:06.063Z,59.30
2023-01-27T11:37:42.639Z,59.40
2023-01-27T11:40:29.921Z,59.50
2023-01-27T11:43:01.281Z,59.40
2023-01-27T11:45:38.234Z,59.50
2023-01-27T11:48:15.638Z,59.50
2023-01-27T11:50:47.253Z,59.50
2023-01-27T11:53:26.162Z,59.50
2023-01-27T11:56:04.487Z,59.50
2023-01-27T11:59:06.023Z,59.50
2023-01-27T12:02:09.389Z,59.50
2023-01-27T12:04:42.505Z,59.40
2023-01-27T12:07:32.685Z,59.60
2023-01-27T12:10:03.427Z,59.50
2023-01-27T12:12:33.615Z,59.60
2023-01-27T12:15:06.998Z,59.60
2023-01-27T12:17:44.781Z,59.60
2023-01-27T12:20:30.415Z,59.60
2023-01-27T12:23:04.951Z,59.50
2023-01-27T12:25:50.550Z,59.80
2023-01-27T12:28:55.935Z,59.70
2023-01-27T12:31:33.668Z,59.60
2023-01-27T12:34:28.864Z,59.70
2023-01-27T12:37:00.018Z,59.80
2023-01-27T12:39:33.709Z,59.80
2023-01-27T12:42:04.219Z,59.70
2023-01-27T12:44:47.999Z,59.80
2023-01-27T12:47:30.538Z,59.70
2023-01-27T12:50:31.481Z,59.70
2023-01-27T12:53:16.912Z,59.70
2023-01-27T12:55:50.000Z,59.80
2023-01-27T12:58:35.402Z,59.80
2023-01-27T13:01:26.446Z,59.80
2023-01-27T13:04:09.220Z,59.80
2023-01-27T13:06:50.124Z,59.80
2023-01-27T13:09:40.288Z,59.80
2023-01-27T13:12:24.426Z,59.80
2023-01-27T13:15:07.817Z,59.80
2023-01-27T13:17:52.860Z,59.90
2023-01-27T13:20:28.764Z,59.80
2023-01-27T13:23:12.933Z,59.80
2023-01-27T13:25:52.142Z,59.70
2023-01-27T13:28:50.204Z,59.90
2023-01-27T13:31:25.321Z,59.90
2023-01-27T13:34:04.473Z,59.90
2023-01-27T13:37:06.512Z,59.90
2023-01-27T13:39:53.432Z,59.80
2023-01-27T13:42:37.685Z,59.90
2023-01-27T13:45:37.083Z,60.00
2023-01-27T13:48:24.789Z,60.00
2023-01-27T13:51:13.387Z,60.00
2023-01-27T13:53:44.092Z,60.00
2023-01-27T13:56:28.437Z,60.10
2023-01-27T13:59:17.132Z,60.00
2023-01-27T14:02:23.731Z,60.00
2023-01-27T14:05:27.878Z,60.00
2023-01-27T14:08:09.770Z,60.10
2023-01-27T14:11:11.210Z,60.20
2023-01-27T14:13:51.890Z,60.10
2023-01-27T14:16:29.305Z,60.30
2023-01-27T14:19:40.481Z,60.30
2023-01-27T14:22:32.458Z,60.20
2023-01-27T14:25:07.838Z,60.30
2023-01-27T14:27:49.058Z,60.40
2023-01-27T14:30:29.216Z,60.40
2023-01-27T14:33:31.851Z,60.30
2023-01-27T14:36:19.151Z,60.30
2023-01-27T14:39:04.665Z,60.40
2023-01-27T14:41:44.850Z,60.30
2023-01-27T14:44:43.850Z,60.30
2023-01-27T14:47:33.551Z,60.30
2023-01-27T14:50:32.594Z,60.30
2023-01-27T14:53:33.017Z,60.30
2023-01-27T14:56:30.424Z,60.30
2023-01-27T14:59:39.573Z,60.30
2023-01-27T15:02:27.792Z,60.50
2023-01-27T15:05:20.042Z,60.60
2023-01-27T15:07:57.610Z,60.50
2023-01-27T15:10:35.860Z,60.60
2023-01-27T15:13:08.881Z,60.50
2023-01-27T15:16:15.521Z,60.50
2023-01-27T15:19:21.896Z,60.50
2023-01-27T15:22:46.717Z,60.60
2023-01-27T15:25:34.998Z,60.70
2023-01-27T15:28:07.007Z,60.90
2023-01-27T15:30:40.226Z,60.90
2023-01-27T15:33:46.563Z,61.00
2023-01-27T15:36:35.229Z,61.00
2023-01-27T15:39:25.881Z,60.90
2023-01-27T15:42:05.396Z,61.00
2023-01-27T15:44:40.942Z,61.00
2023-01-27T15:47:14.280Z,61.00
2023-01-27T15:50:12.515Z,61.00
2023-01-27T15:52:51.045Z,61.00
2023-01-27T15:55:32.180Z,61.00
2023-01-27T15:58:34.909Z,61.10
2023-01-27T16:01:07.965Z,61.80
2023-01-27T16:03:39.713Z,61.20
2023-01-27T16:06:16.341Z,61.20
2023-01-27T16:08:58.706Z,61.10
2023-01-27T16:11:31.667Z,61.10
2023-01-27T16:14:28.605Z,61.10
2023-01-27T16:16:58.725Z,61.00
2023-01-27T16:19:46.184Z,61.10
2023-01-27T16:22:24.354Z,61.10
2023-01-27T16:25:04.115Z,61.10
2023-01-27T16:28:04.480Z,61.10
2023-01-27T16:30:46.823Z,61.20
2023-01-27T16:33:30.280Z,61.10
2023-01-27T16:36:11.159Z,61.20
2023-01-27T16:38:47.256Z,61.10
2023-01-27T16:41:21.471Z,61.20
2023-01-27T16:44:14.788Z,61.30
2023-01-27T16:47:14.987Z,61.10
2023-01-27T16:49:47.364Z,61.10
2023-01-27T16:52:42.454Z,61.30
2023-01-27T16:55:25.967Z,61.30
2023-01-27T16:57:58.661Z,61.30
2023-01-27T17:00:34.156Z,61.30
2023-01-27T17:03:12.208Z,61.30
2023-01-27T17:05:44.438Z,61.30
2023-01-27T17:08:37.378Z,61.30
2023-01-27T17:11:24.190Z,61.20
2023-01-27T17:14:06.025Z,61.30
2023-01-27T17:16:54.941Z,61.30
2023-01-27T17:19:33.490Z,61.20
2023-01-27T17:22:11.972Z,61.30
2023-01-27T17:24:51.200Z,61.30
2023-01-27T17:27:41.854Z,61.30
2023-01-27T17:30:18.602Z,61.30
2023-01-27T17:32:55.650Z,61.40
2023-01-27T17:35:30.594Z,61.40
2023-01-27T17:38:21.872Z,61.40
2023-01-27T17:40:54.730Z,61.40
2023-01-27T17:43:34.031Z,61.50
2023-01-27T17:46:18.786Z,61.50
2023-01-27T17:48:56.976Z,61.40
2023-01-27T17:51:36.563Z,61.40
2023-01-27T17:54:23.013Z,61.50
2023-01-27T17:57:22.859Z,61.50
2023-01-27T18:00:11.464Z,61.50
2023-01-27T18:03:01.838Z,61.60
2023-01-27T18:05:36.170Z,61.50
2023-01-27T18:08:08.424Z,61.60
2023-01-27T18:10:45.655Z,61.60
2023-01-27T18:13:22.550Z,61.60
2023-01-27T18:16:04.178Z,61.50
2023-01-27T18:18:37.148Z,61.50
2023-01-27T18:21:13.287Z,61.50
2023-01-27T18:23:51.297Z,61.60
2023-01-27T18:26:35.446Z,61.50
2023-01-27T18:29:16.042Z,61.60
2023-01-27T18:32:22.387Z,61.50
2023-01-27T18:34:59.120Z,61.50
2023-01-27T18:37:37.780Z,61.60
2023-01-27T18:40:29.725Z,61.60
2023-01-27T18:43:00.853Z,61.50
2023-01-27T18:45:31.283Z,61.50
2023-01-27T18:48:02.671Z,61.50
2023-01-27T18:50:33.030Z,61.50
2023-01-27T18:53:03.258Z,61.50
2023-01-27T18:55:33.569Z,61.50
2023-01-27T18:58:03.850Z,61.50
2023-01-27T19:00:53.896Z,61.60
2023-01-27T19:03:31.671Z,62.20
2023-01-27T19:06:02.018Z,61.50
2023-01-27T19:08:32.464Z,61.50
2023-01-27T19:11:03.074Z,61.50
2023-01-27T19:13:33.380Z,61.40
2023-01-27T19:16:04.294Z,61.40
2023-01-27T19:18:40.000Z,61.50
2023-01-27T19:21:15.920Z,61.50
2023-01-27T19:23:47.467Z,61.50
2023-01-27T19:26:20.611Z,61.60
2023-01-27T19:29:01.003Z,61.70
2023-01-27T19:31:37.445Z,61.80
2023-01-27T19:34:08.470Z,61.80
2023-01-27T19:36:47.512Z,61.90
2023-01-27T19:39:21.478Z,61.90
2023-01-27T19:41:52.584Z,61.90
2023-01-27T19:44:23.473Z,61.90
2023-01-27T19:46:53.757Z,61.90
2023-01-27T19:49:24.035Z,61.80
2023-01-27T19:51:55.275Z,61.80
2023-01-27T19:54:25.635Z,61.80
2023-01-27T19:56:55.948Z,61.70
2023-01-27T19:59:26.810Z,61.70
2023-01-27T20:01:58.364Z,61.80
2023-01-27T20:04:28.582Z,61.80
2023-01-27T20:06:58.867Z,61.80
2023-01-27T20:09:29.047Z,61.70
2023-01-27T20:11:59.320Z,61.70
2023-01-27T20:14:30.099Z,61.70
2023-01-27T20:17:01.605Z,61.70
2023-01-27T20:19:32.341Z,61.80
2023-01-27T20:22:03.396Z,61.70
2023-01-27T20:24:34.018Z,61.80
2023-01-27T20:27:04.589Z,62.00
2023-01-27T20:29:37.035Z,62.00
2023-01-27T20:32:10.987Z,62.10
2023-01-27T20:34:42.131Z,62.10
2023-01-27T20:37:12.563Z,62.20
2023-01-27T20:39:42.758Z,62.30
2023-01-27T20:42:13.217Z,62.30
2023-01-27T20:44:43.430Z,62.40
2023-01-27T20:47:15.053Z,62.60
2023-01-27T20:49:46.161Z,62.50
2023-01-27T20:52:16.414Z,62.60
2023-01-27T20:54:46.703Z,62.60
2023-01-27T20:57:17.668Z,62.70
2023-01-27T20:59:47.921Z,62.70
2023-01-27T21:02:19.585Z,62.70
2023-01-27T21:04:50.116Z,62.70
2023-01-27T21:07:20.609Z,62.70
2023-01-27T21:09:51.107Z,62.70
2023-01-27T21:12:21.865Z,62.90
2023-01-27T21:14:52.105Z,62.90
2023-01-27T21:17:22.345Z,63.00
2023-01-27T21:19:52.884Z,63.20
2023-01-27T21:22:23.137Z,63.70
2023-01-27T21:24:53.285Z,63.50
2023-01-27T21:27:23.491Z,63.50
2023-01-27T21:29:54.513Z,63.50
2023-01-27T21:32:24.689Z,63.80
2023-01-27T21:34:54.881Z,63.70
2023-01-27T21:37:25.344Z,63.60
2023-01-27T21:39:55.562Z,63.80
2023-01-27T21:42:44.034Z,63.90
2023-01-27T21:45:17.350Z,64.60
2023-01-27T21:47:47.707Z,63.90
2023-01-27T21:50:19.033Z,64.80
2023-01-27T21:55:35.720Z,64.10
2023-01-27T21:58:05.943Z,64.00
2023-01-27T22:00:36.367Z,63.90
2023-01-27T22:03:07.207Z,63.90
2023-01-27T22:05:40.962Z,63.80
2023-01-27T22:08:14.679Z,64.30
2023-01-27T22:10:44.919Z,64.20
2023-01-27T22:13:15.887Z,64.00
2023-01-27T22:15:52.360Z,64.50
2023-01-27T22:18:22.556Z,64.00
2023-01-27T22:20:52.897Z,64.40
2023-01-27T22:23:23.428Z,64.50
2023-01-27T22:25:56.886Z,64.10
2023-01-27T22:28:28.221Z,64.00
2023-01-27T22:31:02.345Z,64.40
2023-01-27T22:33:34.080Z,64.30
2023-01-27T22:36:06.807Z,64.30
2023-01-27T22:38:40.613Z,64.30
2023-01-27T22:41:10.995Z,64.20
2023-01-27T22:43:41.443Z,64.20
2023-01-27T22:46:11.879Z,64.20
2023-01-27T22:48:42.174Z,64.10
2023-01-27T22:51:12.640Z,64.20
2023-01-27T22:53:42.985Z,64.20
2023-01-27T22:56:13.366Z,64.20
2023-01-27T22:58:43.650Z,64.20
2023-01-27T23:01:14.155Z,64.20
2023-01-27T23:03:44.605Z,64.20
2023-01-27T23:06:15.911Z,64.20
2023-01-27T23:08:46.285Z,64.10
2023-01-27T23:11:16.694Z,64.00
2023-01-27T23:13:47.827Z,64.00
2023-01-27T23:16:18.359Z,63.90
2023-01-27T23:18:48.702Z,63.90
2023-01-27T23:21:18.949Z,63.90
2023-01-27T23:23:49.180Z,63.80
2023-01-27T23:26:19.733Z,63.80
2023-01-27T23:28:49.915Z,63.70
2023-01-27T23:31:20.427Z,63.60
2023-01-27T23:33:50.859Z,63.60
2023-01-27T23:36:21.526Z,63.90
2023-01-27T23:38:51.854Z,64.00
2023-01-27T23:41:23.050Z,64.10
2023-01-27T23:43:57.779Z,64.10
2023-01-27T23:46:29.767Z,64.20
2023-01-27T23:49:00.171Z,64.10
2023-01-27T23:51:30.400Z,64.20
2023-01-27T23:54:00.639Z,64.20
2023-01-27T23:56:31.120Z,64.20
2023-01-27T23:59:01.305Z,64.30
